Portada
METAR-TAF:

METAR-TAF

Aeropuertos :

Aeropuerto de Aviñón-Provenza

Aviñón, Francia

latitud: 43-54-26N, longitud: 004-54-07E, altitud: 38 m

Observación

El informe se hizo hace 18 minutos, a las 17:00 UTC
Viento 15 kt del norte
Temperatura 26°C
Humedad 34%
Presión 1018 hPa
Visibilidad 10 km o más
sin nubes por debajo de 1500 m y sin presencia de cumulonimbus.

METAR: LFMV 261700Z AUTO 35015KT CAVOK 26/09 Q1018 BECMG 35018G28KT

Hora: 19:18 (17:18 UTC)

Pronóstico

El informe se hizo hace 3 horas y 18 minutos, a las 14:00 UTC
Pronóstico válido del 26 a las 15 UTC al 27 a las 15 UTC
Viento 18 kt del norte con ráfagas de 28 kt
Visibilidad 10 km o más
sin nubes por debajo de 1500 m y sin presencia de cumulonimbus.

TAF: LFMV 261400Z 2615/2715 35018G28KT CAVOK

Observaciones y pronósticos meteorológicos de más de 4000 aeropuertos (mensajes METAR y TAF).

Los puntos amarillos y rojos representan las estaciones disponibles.

Ponga el ratón en el punto deseado para ver el nombre de la estación.

Haga clic para ver las observaciones y los pronósticos meteorológicos.

Para cambiar el mapa : haga clic en los botones verdes con una cruz de color negro para hacer un zoom, en el botón verde con un guión para alejar o en las flechas verdes para mapas adyacentes.


METAR-TAF: